Página principal
METAR-TAF:

METAR-TAF

Aeroportos :

Nouadhibou, Mauritânia

latitude: 20-56N, longitude: 017-02W, altura: 5 m

Observação actual do tempo

O boletim foi feito há 10 minutos, às 23:00 UTC
Vento 17 kt de nor-nordeste
Temperatura 20°C
Humidade 73%
Pressão 1013 hPa
Visibilidade: 8000 m
trovoada, chuva fraca

METAR: GQPP 152300Z 02017KT 8000 -TSRA NSC 20/15 Q1013 NOSIG

Hora: 23:10 (23:10 UTC)

Previsão

O boletim foi feito há 6 horas e 10 minutos, às 17:00 UTC
Previsão válida de 15 às 18 UTC a 16 às 18 UTC
Vento 12 kt de norte
Visibilidade: 8000 m

TAF: GQPP 151700Z 1518/1618 35012KT 8000 NSC

Observações e previsões do tempo de mais de 4000 aeroportos (mensagens METAR e TAF).

As estações disponíveis são os pontos amarelos e vermelhos sobre o mapa.

Mova o rato sobre o mapa para ver o nome da estação.

Depois clique no ponto para visualizar as observações e previsões meteorológicas.

Para alterar o mapa : clique nos botões verdes com uma cruz preta para aumentar o zoom; no botão verde com uma pitada de zoom; ou nas setas verdes para mapas adjacentes.


METAR-TAF: